sensor_id;sensor_type;location;lat;lon;timestamp;P1;durP1;ratioP1;P2;durP2;ratioP2
24305;SDS011;12423;48.768;8.850;2024-02-16T00:02:01;7.83;;;3.00;;
24305;SDS011;12423;48.768;8.850;2024-02-16T00:04:28;5.28;;;2.85;;
24305;SDS011;12423;48.768;8.850;2024-02-16T00:06:57;6.13;;;2.93;;
24305;SDS011;12423;48.768;8.850;2024-02-16T00:09:25;6.03;;;3.20;;
24305;SDS011;12423;48.768;8.850;2024-02-16T00:11:53;4.97;;;2.80;;
24305;SDS011;12423;48.768;8.850;2024-02-16T00:14:21;3.40;;;2.13;;
24305;SDS011;12423;48.768;8.850;2024-02-16T00:16:48;6.70;;;2.97;;
24305;SDS011;12423;48.768;8.850;2024-02-16T00:19:17;5.93;;;3.05;;
24305;SDS011;12423;48.768;8.850;2024-02-16T00:21:45;5.45;;;2.78;;
24305;SDS011;12423;48.768;8.850;2024-02-16T00:24:12;6.35;;;2.97;;
24305;SDS011;12423;48.768;8.850;2024-02-16T00:26:40;11.15;;;2.83;;
24305;SDS011;12423;48.768;8.850;2024-02-16T00:31:36;5.90;;;2.92;;
24305;SDS011;12423;48.768;8.850;2024-02-16T00:34:04;5.82;;;2.60;;
24305;SDS011;12423;48.768;8.850;2024-02-16T00:36:33;4.53;;;2.60;;
24305;SDS011;12423;48.768;8.850;2024-02-16T00:39:01;5.78;;;2.85;;
24305;SDS011;12423;48.768;8.850;2024-02-16T00:41:29;6.65;;;3.63;;
24305;SDS011;12423;48.768;8.850;2024-02-16T00:43:57;6.22;;;2.90;;
24305;SDS011;12423;48.768;8.850;2024-02-16T00:46:24;4.53;;;2.67;;
24305;SDS011;12423;48.768;8.850;2024-02-16T00:48:52;4.97;;;2.30;;
24305;SDS011;12423;48.768;8.850;2024-02-16T00:51:20;7.07;;;2.60;;
24305;SDS011;12423;48.768;8.850;2024-02-16T00:53:51;4.55;;;2.33;;
24305;SDS011;12423;48.768;8.850;2024-02-16T00:56:19;5.47;;;2.42;;
24305;SDS011;12423;48.768;8.850;2024-02-16T00:58:46;4.53;;;2.28;;
24305;SDS011;12423;48.768;8.850;2024-02-16T01:01:14;5.53;;;2.30;;
24305;SDS011;12423;48.768;8.850;2024-02-16T01:03:41;3.50;;;1.55;;
24305;SDS011;12423;48.768;8.850;2024-02-16T01:06:09;2.90;;;1.15;;
24305;SDS011;12423;48.768;8.850;2024-02-16T01:08:37;4.60;;;1.88;;
24305;SDS011;12423;48.768;8.850;2024-02-16T01:11:06;3.45;;;1.90;;
24305;SDS011;12423;48.768;8.850;2024-02-16T01:13:33;5.72;;;2.03;;
24305;SDS011;12423;48.768;8.850;2024-02-16T01:16:02;3.88;;;2.08;;
24305;SDS011;12423;48.768;8.850;2024-02-16T01:18:29;3.83;;;1.70;;
24305;SDS011;12423;48.768;8.850;2024-02-16T01:20:59;3.78;;;1.77;;
24305;SDS011;12423;48.768;8.850;2024-02-16T01:23:27;6.90;;;2.22;;
24305;SDS011;12423;48.768;8.850;2024-02-16T01:25:54;3.15;;;1.63;;
24305;SDS011;12423;48.768;8.850;2024-02-16T01:28:23;3.20;;;1.58;;
24305;SDS011;12423;48.768;8.850;2024-02-16T01:30:50;4.57;;;1.92;;
24305;SDS011;12423;48.768;8.850;2024-02-16T01:33:18;4.30;;;1.85;;
24305;SDS011;12423;48.768;8.850;2024-02-16T01:35:46;7.32;;;1.70;;
24305;SDS011;12423;48.768;8.850;2024-02-16T01:38:14;4.47;;;2.00;;
24305;SDS011;12423;48.768;8.850;2024-02-16T01:40:41;4.90;;;1.90;;
24305;SDS011;12423;48.768;8.850;2024-02-16T01:43:09;3.72;;;1.90;;
24305;SDS011;12423;48.768;8.850;2024-02-16T01:45:37;4.18;;;2.05;;
24305;SDS011;12423;48.768;8.850;2024-02-16T01:48:05;7.45;;;2.17;;
24305;SDS011;12423;48.768;8.850;2024-02-16T01:50:33;4.43;;;2.50;;
24305;SDS011;12423;48.768;8.850;2024-02-16T01:53:03;4.72;;;1.95;;
24305;SDS011;12423;48.768;8.850;2024-02-16T01:55:31;4.50;;;2.40;;
24305;SDS011;12423;48.768;8.850;2024-02-16T01:57:59;4.18;;;2.17;;
24305;SDS011;12423;48.768;8.850;2024-02-16T02:00:27;4.57;;;2.38;;
24305;SDS011;12423;48.768;8.850;2024-02-16T02:02:55;4.22;;;2.20;;
24305;SDS011;12423;48.768;8.850;2024-02-16T02:05:24;5.63;;;2.20;;
24305;SDS011;12423;48.768;8.850;2024-02-16T02:11:45;3.75;;;1.67;;
24305;SDS011;12423;48.768;8.850;2024-02-16T02:14:13;2.90;;;1.55;;
24305;SDS011;12423;48.768;8.850;2024-02-16T02:16:41;3.42;;;1.83;;
24305;SDS011;12423;48.768;8.850;2024-02-16T02:19:22;4.18;;;2.20;;
24305;SDS011;12423;48.768;8.850;2024-02-16T02:21:50;5.45;;;1.75;;
24305;SDS011;12423;48.768;8.850;2024-02-16T02:24:18;3.00;;;1.67;;
24305;SDS011;12423;48.768;8.850;2024-02-16T02:26:47;4.70;;;1.67;;
24305;SDS011;12423;48.768;8.850;2024-02-16T02:29:14;2.75;;;1.63;;
24305;SDS011;12423;48.768;8.850;2024-02-16T02:31:42;3.90;;;1.70;;
24305;SDS011;12423;48.768;8.850;2024-02-16T02:34:09;4.47;;;1.88;;
24305;SDS011;12423;48.768;8.850;2024-02-16T02:36:37;5.35;;;1.88;;
24305;SDS011;12423;48.768;8.850;2024-02-16T02:39:05;3.65;;;1.63;;
24305;SDS011;12423;48.768;8.850;2024-02-16T02:41:34;3.05;;;1.52;;
24305;SDS011;12423;48.768;8.850;2024-02-16T02:44:01;3.83;;;1.50;;
24305;SDS011;12423;48.768;8.850;2024-02-16T02:46:29;3.20;;;1.60;;
24305;SDS011;12423;48.768;8.850;2024-02-16T02:48:56;4.38;;;1.63;;
24305;SDS011;12423;48.768;8.850;2024-02-16T02:51:24;4.38;;;1.55;;
24305;SDS011;12423;48.768;8.850;2024-02-16T02:53:53;5.80;;;2.28;;
24305;SDS011;12423;48.768;8.850;2024-02-16T02:56:20;4.13;;;1.60;;
24305;SDS011;12423;48.768;8.850;2024-02-16T02:58:49;3.75;;;1.70;;
24305;SDS011;12423;48.768;8.850;2024-02-16T03:01:17;3.22;;;1.60;;
24305;SDS011;12423;48.768;8.850;2024-02-16T03:03:46;4.85;;;1.83;;
24305;SDS011;12423;48.768;8.850;2024-02-16T03:06:17;3.33;;;1.52;;
24305;SDS011;12423;48.768;8.850;2024-02-16T03:08:44;4.20;;;1.60;;
24305;SDS011;12423;48.768;8.850;2024-02-16T03:11:12;3.28;;;1.75;;
24305;SDS011;12423;48.768;8.850;2024-02-16T03:13:39;3.40;;;1.58;;
24305;SDS011;12423;48.768;8.850;2024-02-16T03:16:08;4.57;;;1.40;;
24305;SDS011;12423;48.768;8.850;2024-02-16T03:18:36;3.00;;;1.70;;
24305;SDS011;12423;48.768;8.850;2024-02-16T03:21:04;3.35;;;1.42;;
24305;SDS011;12423;48.768;8.850;2024-02-16T03:23:31;3.97;;;1.80;;
24305;SDS011;12423;48.768;8.850;2024-02-16T03:25:59;3.25;;;1.75;;
24305;SDS011;12423;48.768;8.850;2024-02-16T03:28:26;4.20;;;1.77;;
24305;SDS011;12423;48.768;8.850;2024-02-16T03:30:54;2.97;;;1.67;;
24305;SDS011;12423;48.768;8.850;2024-02-16T03:33:22;3.20;;;1.50;;
24305;SDS011;12423;48.768;8.850;2024-02-16T03:35:50;3.58;;;1.95;;
24305;SDS011;12423;48.768;8.850;2024-02-16T03:38:17;4.30;;;1.70;;
24305;SDS011;12423;48.768;8.850;2024-02-16T03:40:45;3.45;;;1.70;;
24305;SDS011;12423;48.768;8.850;2024-02-16T03:43:12;3.40;;;1.67;;
24305;SDS011;12423;48.768;8.850;2024-02-16T03:45:40;4.25;;;1.95;;
24305;SDS011;12423;48.768;8.850;2024-02-16T03:48:07;4.10;;;1.77;;
24305;SDS011;12423;48.768;8.850;2024-02-16T03:50:36;3.25;;;1.60;;
24305;SDS011;12423;48.768;8.850;2024-02-16T03:53:04;4.40;;;1.88;;
24305;SDS011;12423;48.768;8.850;2024-02-16T03:55:31;2.97;;;1.50;;
24305;SDS011;12423;48.768;8.850;2024-02-16T03:58:02;5.10;;;1.90;;
24305;SDS011;12423;48.768;8.850;2024-02-16T04:00:30;3.28;;;1.50;;
24305;SDS011;12423;48.768;8.850;2024-02-16T04:02:59;6.75;;;1.77;;
24305;SDS011;12423;48.768;8.850;2024-02-16T04:05:26;3.65;;;1.80;;
24305;SDS011;12423;48.768;8.850;2024-02-16T04:07:58;4.57;;;1.83;;
24305;SDS011;12423;48.768;8.850;2024-02-16T04:10:31;4.40;;;2.00;;
24305;SDS011;12423;48.768;8.850;2024-02-16T04:12:59;3.05;;;1.67;;
24305;SDS011;12423;48.768;8.850;2024-02-16T04:15:26;3.30;;;1.73;;
24305;SDS011;12423;48.768;8.850;2024-02-16T04:17:54;3.53;;;2.00;;
24305;SDS011;12423;48.768;8.850;2024-02-16T04:20:22;5.63;;;1.98;;
24305;SDS011;12423;48.768;8.850;2024-02-16T04:22:49;3.67;;;1.70;;
24305;SDS011;12423;48.768;8.850;2024-02-16T04:25:18;3.55;;;1.70;;
24305;SDS011;12423;48.768;8.850;2024-02-16T04:27:46;3.90;;;1.35;;
24305;SDS011;12423;48.768;8.850;2024-02-16T04:30:13;3.22;;;1.73;;
24305;SDS011;12423;48.768;8.850;2024-02-16T04:32:41;5.20;;;2.30;;
24305;SDS011;12423;48.768;8.850;2024-02-16T04:35:08;3.25;;;1.70;;
24305;SDS011;12423;48.768;8.850;2024-02-16T04:37:38;4.10;;;2.05;;
24305;SDS011;12423;48.768;8.850;2024-02-16T04:40:06;4.80;;;2.00;;
24305;SDS011;12423;48.768;8.850;2024-02-16T04:42:35;2.38;;;1.05;;
24305;SDS011;12423;48.768;8.850;2024-02-16T04:45:03;3.88;;;1.60;;
24305;SDS011;12423;48.768;8.850;2024-02-16T04:50:00;2.80;;;1.30;;
24305;SDS011;12423;48.768;8.850;2024-02-16T04:52:28;3.03;;;1.50;;
24305;SDS011;12423;48.768;8.850;2024-02-16T04:54:56;3.40;;;1.70;;
24305;SDS011;12423;48.768;8.850;2024-02-16T04:57:24;3.17;;;1.52;;
24305;SDS011;12423;48.768;8.850;2024-02-16T04:59:53;3.60;;;1.40;;
24305;SDS011;12423;48.768;8.850;2024-02-16T05:02:20;3.08;;;2.05;;
24305;SDS011;12423;48.768;8.850;2024-02-16T05:04:47;3.60;;;1.35;;
24305;SDS011;12423;48.768;8.850;2024-02-16T05:07:15;3.72;;;1.40;;
24305;SDS011;12423;48.768;8.850;2024-02-16T05:09:42;2.78;;;1.42;;
24305;SDS011;12423;48.768;8.850;2024-02-16T05:12:10;4.38;;;1.50;;
24305;SDS011;12423;48.768;8.850;2024-02-16T05:14:38;3.40;;;1.63;;
24305;SDS011;12423;48.768;8.850;2024-02-16T05:17:08;3.85;;;1.58;;
24305;SDS011;12423;48.768;8.850;2024-02-16T05:19:35;3.70;;;1.73;;
24305;SDS011;12423;48.768;8.850;2024-02-16T05:22:03;3.88;;;1.92;;
24305;SDS011;12423;48.768;8.850;2024-02-16T05:24:30;4.55;;;2.40;;
24305;SDS011;12423;48.768;8.850;2024-02-16T05:26:58;7.53;;;2.40;;
24305;SDS011;12423;48.768;8.850;2024-02-16T05:29:26;5.07;;;2.22;;
24305;SDS011;12423;48.768;8.850;2024-02-16T05:31:53;5.65;;;2.00;;
24305;SDS011;12423;48.768;8.850;2024-02-16T05:34:22;3.72;;;1.75;;
24305;SDS011;12423;48.768;8.850;2024-02-16T05:36:50;3.50;;;1.55;;
24305;SDS011;12423;48.768;8.850;2024-02-16T05:39:17;3.92;;;1.83;;
24305;SDS011;12423;48.768;8.850;2024-02-16T05:41:53;4.70;;;1.67;;
24305;SDS011;12423;48.768;8.850;2024-02-16T05:44:20;4.15;;;1.80;;
24305;SDS011;12423;48.768;8.850;2024-02-16T05:46:48;3.95;;;1.88;;
24305;SDS011;12423;48.768;8.850;2024-02-16T05:49:16;3.25;;;1.77;;
24305;SDS011;12423;48.768;8.850;2024-02-16T05:51:45;5.50;;;1.73;;
24305;SDS011;12423;48.768;8.850;2024-02-16T05:54:33;4.00;;;2.20;;
24305;SDS011;12423;48.768;8.850;2024-02-16T05:57:04;4.32;;;1.92;;
24305;SDS011;12423;48.768;8.850;2024-02-16T05:59:32;6.25;;;2.10;;
24305;SDS011;12423;48.768;8.850;2024-02-16T06:01:59;3.47;;;1.70;;
24305;SDS011;12423;48.768;8.850;2024-02-16T06:04:26;2.95;;;1.67;;
24305;SDS011;12423;48.768;8.850;2024-02-16T06:06:55;3.38;;;1.63;;
24305;SDS011;12423;48.768;8.850;2024-02-16T06:09:23;4.38;;;1.88;;
24305;SDS011;12423;48.768;8.850;2024-02-16T06:11:50;4.25;;;1.50;;
24305;SDS011;12423;48.768;8.850;2024-02-16T06:14:18;3.75;;;1.70;;
24305;SDS011;12423;48.768;8.850;2024-02-16T06:17:04;3.40;;;1.60;;
24305;SDS011;12423;48.768;8.850;2024-02-16T06:19:32;6.28;;;1.48;;
24305;SDS011;12423;48.768;8.850;2024-02-16T06:22:01;2.78;;;1.17;;
24305;SDS011;12423;48.768;8.850;2024-02-16T06:24:28;4.43;;;1.75;;
24305;SDS011;12423;48.768;8.850;2024-02-16T06:26:56;2.88;;;1.50;;
24305;SDS011;12423;48.768;8.850;2024-02-16T06:29:23;3.70;;;1.60;;
24305;SDS011;12423;48.768;8.850;2024-02-16T06:31:51;10.23;;;6.93;;
24305;SDS011;12423;48.768;8.850;2024-02-16T06:34:19;9.88;;;4.78;;
24305;SDS011;12423;48.768;8.850;2024-02-16T06:36:47;7.33;;;2.27;;
24305;SDS011;12423;48.768;8.850;2024-02-16T06:39:16;4.93;;;2.25;;
24305;SDS011;12423;48.768;8.850;2024-02-16T06:41:45;4.72;;;2.90;;
24305;SDS011;12423;48.768;8.850;2024-02-16T06:44:12;5.93;;;3.05;;
24305;SDS011;12423;48.768;8.850;2024-02-16T06:46:40;4.60;;;2.50;;
24305;SDS011;12423;48.768;8.850;2024-02-16T06:49:08;8.40;;;3.63;;
24305;SDS011;12423;48.768;8.850;2024-02-16T06:51:36;4.32;;;2.53;;
24305;SDS011;12423;48.768;8.850;2024-02-16T06:54:03;6.05;;;2.55;;
24305;SDS011;12423;48.768;8.850;2024-02-16T06:56:32;5.95;;;3.33;;
24305;SDS011;12423;48.768;8.850;2024-02-16T06:59:02;5.50;;;2.83;;
24305;SDS011;12423;48.768;8.850;2024-02-16T07:01:29;5.15;;;2.72;;
24305;SDS011;12423;48.768;8.850;2024-02-16T07:03:57;3.75;;;2.25;;
24305;SDS011;12423;48.768;8.850;2024-02-16T07:06:24;5.00;;;2.65;;
24305;SDS011;12423;48.768;8.850;2024-02-16T07:08:52;4.73;;;2.50;;
24305;SDS011;12423;48.768;8.850;2024-02-16T07:11:20;6.65;;;2.97;;
24305;SDS011;12423;48.768;8.850;2024-02-16T07:13:49;8.23;;;4.28;;
24305;SDS011;12423;48.768;8.850;2024-02-16T07:16:17;8.65;;;4.68;;
24305;SDS011;12423;48.768;8.850;2024-02-16T07:18:45;9.65;;;5.05;;
24305;SDS011;12423;48.768;8.850;2024-02-16T07:21:12;7.75;;;4.38;;
24305;SDS011;12423;48.768;8.850;2024-02-16T07:23:40;8.50;;;3.58;;
24305;SDS011;12423;48.768;8.850;2024-02-16T07:26:07;6.88;;;3.65;;
24305;SDS011;12423;48.768;8.850;2024-02-16T07:28:35;7.28;;;3.75;;
24305;SDS011;12423;48.768;8.850;2024-02-16T07:31:04;5.05;;;2.63;;
24305;SDS011;12423;48.768;8.850;2024-02-16T07:33:31;7.45;;;3.58;;
24305;SDS011;12423;48.768;8.850;2024-02-16T07:35:59;7.93;;;3.50;;
24305;SDS011;12423;48.768;8.850;2024-02-16T07:38:27;6.45;;;3.67;;
24305;SDS011;12423;48.768;8.850;2024-02-16T07:40:55;7.30;;;3.60;;
24305;SDS011;12423;48.768;8.850;2024-02-16T07:43:22;10.30;;;5.18;;
24305;SDS011;12423;48.768;8.850;2024-02-16T07:45:50;8.30;;;5.63;;
24305;SDS011;12423;48.768;8.850;2024-02-16T07:48:21;10.95;;;5.22;;
24305;SDS011;12423;48.768;8.850;2024-02-16T07:53:17;5.90;;;3.45;;
24305;SDS011;12423;48.768;8.850;2024-02-16T07:55:45;9.65;;;4.07;;
24305;SDS011;12423;48.768;8.850;2024-02-16T07:58:12;7.57;;;4.10;;
24305;SDS011;12423;48.768;8.850;2024-02-16T08:00:39;8.80;;;3.80;;
24305;SDS011;12423;48.768;8.850;2024-02-16T08:03:07;7.55;;;4.50;;
24305;SDS011;12423;48.768;8.850;2024-02-16T08:05:36;7.38;;;4.13;;
24305;SDS011;12423;48.768;8.850;2024-02-16T08:08:04;9.70;;;4.18;;
24305;SDS011;12423;48.768;8.850;2024-02-16T08:10:31;6.78;;;4.13;;
24305;SDS011;12423;48.768;8.850;2024-02-16T08:12:59;7.90;;;3.42;;
24305;SDS011;12423;48.768;8.850;2024-02-16T08:15:26;6.10;;;3.47;;
24305;SDS011;12423;48.768;8.850;2024-02-16T08:17:54;10.32;;;5.47;;
24305;SDS011;12423;48.768;8.850;2024-02-16T08:20:22;10.68;;;4.40;;
24305;SDS011;12423;48.768;8.850;2024-02-16T08:22:51;8.95;;;4.43;;
24305;SDS011;12423;48.768;8.850;2024-02-16T08:25:18;7.13;;;4.20;;
24305;SDS011;12423;48.768;8.850;2024-02-16T08:27:46;7.05;;;3.05;;
24305;SDS011;12423;48.768;8.850;2024-02-16T08:32:43;8.18;;;4.50;;
24305;SDS011;12423;48.768;8.850;2024-02-16T08:35:10;8.02;;;3.78;;
24305;SDS011;12423;48.768;8.850;2024-02-16T08:37:40;12.88;;;7.55;;
24305;SDS011;12423;48.768;8.850;2024-02-16T08:40:12;10.02;;;6.15;;
24305;SDS011;12423;48.768;8.850;2024-02-16T08:42:40;11.60;;;6.75;;
24305;SDS011;12423;48.768;8.850;2024-02-16T08:45:08;16.33;;;10.20;;
24305;SDS011;12423;48.768;8.850;2024-02-16T08:47:36;12.23;;;7.85;;
24305;SDS011;12423;48.768;8.850;2024-02-16T08:50:05;10.13;;;6.45;;
24305;SDS011;12423;48.768;8.850;2024-02-16T08:52:33;9.40;;;5.15;;
24305;SDS011;12423;48.768;8.850;2024-02-16T08:55:00;10.07;;;5.93;;
24305;SDS011;12423;48.768;8.850;2024-02-16T08:57:31;10.40;;;5.50;;
24305;SDS011;12423;48.768;8.850;2024-02-16T08:59:58;8.25;;;5.25;;
24305;SDS011;12423;48.768;8.850;2024-02-16T09:02:26;9.10;;;6.05;;
24305;SDS011;12423;48.768;8.850;2024-02-16T09:04:53;9.38;;;5.63;;
24305;SDS011;12423;48.768;8.850;2024-02-16T09:07:21;9.30;;;5.90;;
24305;SDS011;12423;48.768;8.850;2024-02-16T09:09:49;12.70;;;6.88;;
24305;SDS011;12423;48.768;8.850;2024-02-16T09:12:16;13.05;;;7.57;;
24305;SDS011;12423;48.768;8.850;2024-02-16T09:14:45;38.92;;;22.58;;
24305;SDS011;12423;48.768;8.850;2024-02-16T09:17:13;21.17;;;12.07;;
24305;SDS011;12423;48.768;8.850;2024-02-16T09:19:40;15.20;;;8.15;;
24305;SDS011;12423;48.768;8.850;2024-02-16T09:22:08;8.77;;;5.15;;
24305;SDS011;12423;48.768;8.850;2024-02-16T09:24:35;8.55;;;4.22;;
24305;SDS011;12423;48.768;8.850;2024-02-16T09:27:03;8.43;;;4.35;;
24305;SDS011;12423;48.768;8.850;2024-02-16T09:29:31;11.18;;;4.13;;
24305;SDS011;12423;48.768;8.850;2024-02-16T09:32:00;6.88;;;3.40;;
24305;SDS011;12423;48.768;8.850;2024-02-16T09:34:28;9.60;;;3.70;;
24305;SDS011;12423;48.768;8.850;2024-02-16T09:36:56;8.68;;;3.60;;
24305;SDS011;12423;48.768;8.850;2024-02-16T09:39:23;5.55;;;3.53;;
24305;SDS011;12423;48.768;8.850;2024-02-16T09:41:53;5.63;;;3.20;;
24305;SDS011;12423;48.768;8.850;2024-02-16T09:44:21;6.80;;;4.05;;
24305;SDS011;12423;48.768;8.850;2024-02-16T09:46:49;8.30;;;4.03;;
24305;SDS011;12423;48.768;8.850;2024-02-16T09:49:19;5.50;;;3.38;;
24305;SDS011;12423;48.768;8.850;2024-02-16T09:52:01;8.98;;;2.58;;
24305;SDS011;12423;48.768;8.850;2024-02-16T09:56:57;6.60;;;2.75;;
24305;SDS011;12423;48.768;8.850;2024-02-16T09:59:24;4.43;;;2.88;;
24305;SDS011;12423;48.768;8.850;2024-02-16T10:01:58;4.57;;;2.10;;
24305;SDS011;12423;48.768;8.850;2024-02-16T10:04:27;4.93;;;2.25;;
24305;SDS011;12423;48.768;8.850;2024-02-16T10:07:00;3.13;;;1.20;;
24305;SDS011;12423;48.768;8.850;2024-02-16T10:09:28;3.00;;;1.20;;
24305;SDS011;12423;48.768;8.850;2024-02-16T10:11:56;5.18;;;1.30;;
24305;SDS011;12423;48.768;8.850;2024-02-16T10:14:24;2.80;;;1.35;;
24305;SDS011;12423;48.768;8.850;2024-02-16T10:16:58;3.88;;;1.30;;
24305;SDS011;12423;48.768;8.850;2024-02-16T10:19:27;3.88;;;1.35;;
24305;SDS011;12423;48.768;8.850;2024-02-16T10:24:22;2.28;;;1.15;;
24305;SDS011;12423;48.768;8.850;2024-02-16T10:26:50;4.03;;;1.90;;
24305;SDS011;12423;48.768;8.850;2024-02-16T10:29:18;10.90;;;2.40;;
24305;SDS011;12423;48.768;8.850;2024-02-16T10:31:46;4.55;;;1.90;;
24305;SDS011;12423;48.768;8.850;2024-02-16T10:34:14;4.15;;;1.77;;
24305;SDS011;12423;48.768;8.850;2024-02-16T10:36:44;4.05;;;1.80;;
24305;SDS011;12423;48.768;8.850;2024-02-16T10:39:12;3.22;;;1.52;;
24305;SDS011;12423;48.768;8.850;2024-02-16T10:41:41;3.70;;;1.60;;
24305;SDS011;12423;48.768;8.850;2024-02-16T10:44:08;2.53;;;1.00;;
24305;SDS011;12423;48.768;8.850;2024-02-16T10:46:37;3.17;;;1.35;;
24305;SDS011;12423;48.768;8.850;2024-02-16T10:49:05;4.25;;;1.33;;
24305;SDS011;12423;48.768;8.850;2024-02-16T10:51:35;6.18;;;1.15;;
24305;SDS011;12423;48.768;8.850;2024-02-16T10:54:06;2.65;;;1.30;;
24305;SDS011;12423;48.768;8.850;2024-02-16T10:56:34;4.22;;;1.75;;
24305;SDS011;12423;48.768;8.850;2024-02-16T10:59:02;3.10;;;1.20;;
24305;SDS011;12423;48.768;8.850;2024-02-16T11:01:36;2.97;;;1.27;;
24305;SDS011;12423;48.768;8.850;2024-02-16T11:04:05;3.53;;;1.40;;
24305;SDS011;12423;48.768;8.850;2024-02-16T11:06:44;4.90;;;1.40;;
24305;SDS011;12423;48.768;8.850;2024-02-16T11:09:23;5.43;;;1.17;;
24305;SDS011;12423;48.768;8.850;2024-02-16T11:11:52;3.55;;;1.27;;
24305;SDS011;12423;48.768;8.850;2024-02-16T11:14:21;7.40;;;1.50;;
24305;SDS011;12423;48.768;8.850;2024-02-16T11:16:48;3.72;;;1.45;;
24305;SDS011;12423;48.768;8.850;2024-02-16T11:19:16;3.88;;;1.42;;
24305;SDS011;12423;48.768;8.850;2024-02-16T11:21:54;3.73;;;1.40;;
24305;SDS011;12423;48.768;8.850;2024-02-16T11:24:28;3.63;;;1.50;;
24305;SDS011;12423;48.768;8.850;2024-02-16T11:26:56;3.45;;;1.35;;
24305;SDS011;12423;48.768;8.850;2024-02-16T11:29:25;3.10;;;1.42;;
24305;SDS011;12423;48.768;8.850;2024-02-16T11:31:52;2.97;;;1.23;;
24305;SDS011;12423;48.768;8.850;2024-02-16T11:34:21;4.38;;;1.50;;
24305;SDS011;12423;48.768;8.850;2024-02-16T11:36:49;7.03;;;1.38;;
24305;SDS011;12423;48.768;8.850;2024-02-16T11:39:22;2.70;;;1.30;;
24305;SDS011;12423;48.768;8.850;2024-02-16T11:42:03;3.47;;;1.30;;
24305;SDS011;12423;48.768;8.850;2024-02-16T11:44:31;2.97;;;1.27;;
24305;SDS011;12423;48.768;8.850;2024-02-16T11:46:59;3.75;;;1.35;;
24305;SDS011;12423;48.768;8.850;2024-02-16T11:49:27;2.75;;;1.33;;
24305;SDS011;12423;48.768;8.850;2024-02-16T11:51:55;3.42;;;1.65;;
24305;SDS011;12423;48.768;8.850;2024-02-16T11:54:23;3.58;;;1.40;;
24305;SDS011;12423;48.768;8.850;2024-02-16T11:56:51;3.20;;;1.10;;
24305;SDS011;12423;48.768;8.850;2024-02-16T11:59:20;9.35;;;1.98;;
24305;SDS011;12423;48.768;8.850;2024-02-16T12:04:19;4.13;;;1.20;;
24305;SDS011;12423;48.768;8.850;2024-02-16T12:06:46;3.40;;;1.33;;
24305;SDS011;12423;48.768;8.850;2024-02-16T12:09:15;4.15;;;1.50;;
24305;SDS011;12423;48.768;8.850;2024-02-16T12:11:43;3.95;;;1.35;;
24305;SDS011;12423;48.768;8.850;2024-02-16T12:14:10;3.13;;;1.50;;
24305;SDS011;12423;48.768;8.850;2024-02-16T12:16:39;5.13;;;1.45;;
24305;SDS011;12423;48.768;8.850;2024-02-16T12:19:06;5.47;;;1.63;;
24305;SDS011;12423;48.768;8.850;2024-02-16T12:21:35;12.40;;;2.38;;
24305;SDS011;12423;48.768;8.850;2024-02-16T12:24:03;7.20;;;1.75;;
24305;SDS011;12423;48.768;8.850;2024-02-16T12:26:30;7.35;;;2.03;;
24305;SDS011;12423;48.768;8.850;2024-02-16T12:28:58;4.53;;;1.73;;
24305;SDS011;12423;48.768;8.850;2024-02-16T12:31:25;6.15;;;1.50;;
24305;SDS011;12423;48.768;8.850;2024-02-16T12:33:54;4.22;;;1.50;;
24305;SDS011;12423;48.768;8.850;2024-02-16T12:36:22;4.75;;;1.80;;
24305;SDS011;12423;48.768;8.850;2024-02-16T12:38:50;5.57;;;2.00;;
24305;SDS011;12423;48.768;8.850;2024-02-16T12:41:18;5.95;;;1.65;;
24305;SDS011;12423;48.768;8.850;2024-02-16T12:43:45;8.10;;;2.03;;
24305;SDS011;12423;48.768;8.850;2024-02-16T12:46:12;7.90;;;1.52;;
24305;SDS011;12423;48.768;8.850;2024-02-16T12:48:40;5.68;;;1.50;;
24305;SDS011;12423;48.768;8.850;2024-02-16T12:51:11;5.18;;;1.67;;
24305;SDS011;12423;48.768;8.850;2024-02-16T12:56:07;5.57;;;1.55;;
24305;SDS011;12423;48.768;8.850;2024-02-16T12:58:35;5.63;;;1.40;;
24305;SDS011;12423;48.768;8.850;2024-02-16T13:01:03;4.38;;;1.35;;
24305;SDS011;12423;48.768;8.850;2024-02-16T13:03:44;3.10;;;1.50;;
24305;SDS011;12423;48.768;8.850;2024-02-16T13:06:13;4.43;;;1.63;;
24305;SDS011;12423;48.768;8.850;2024-02-16T13:08:41;5.88;;;1.60;;
24305;SDS011;12423;48.768;8.850;2024-02-16T13:11:08;5.57;;;1.63;;
24305;SDS011;12423;48.768;8.850;2024-02-16T13:13:36;4.30;;;1.20;;
24305;SDS011;12423;48.768;8.850;2024-02-16T13:16:03;5.47;;;1.20;;
24305;SDS011;12423;48.768;8.850;2024-02-16T13:18:31;5.05;;;1.30;;
24305;SDS011;12423;48.768;8.850;2024-02-16T13:20:59;5.10;;;1.55;;
24305;SDS011;12423;48.768;8.850;2024-02-16T13:23:28;5.53;;;1.67;;
24305;SDS011;12423;48.768;8.850;2024-02-16T13:25:57;5.95;;;1.42;;
24305;SDS011;12423;48.768;8.850;2024-02-16T13:28:24;8.27;;;1.40;;
24305;SDS011;12423;48.768;8.850;2024-02-16T13:30:52;4.65;;;1.67;;
24305;SDS011;12423;48.768;8.850;2024-02-16T13:33:19;4.72;;;1.48;;
24305;SDS011;12423;48.768;8.850;2024-02-16T13:35:47;3.88;;;1.08;;
24305;SDS011;12423;48.768;8.850;2024-02-16T13:38:15;5.93;;;1.20;;
24305;SDS011;12423;48.768;8.850;2024-02-16T13:40:43;4.82;;;1.35;;
24305;SDS011;12423;48.768;8.850;2024-02-16T13:43:11;4.53;;;1.45;;
24305;SDS011;12423;48.768;8.850;2024-02-16T13:45:48;3.88;;;1.38;;
24305;SDS011;12423;48.768;8.850;2024-02-16T13:48:17;5.32;;;1.40;;
24305;SDS011;12423;48.768;8.850;2024-02-16T13:50:45;5.20;;;1.37;;
24305;SDS011;12423;48.768;8.850;2024-02-16T13:53:13;4.45;;;1.05;;
24305;SDS011;12423;48.768;8.850;2024-02-16T13:55:47;6.50;;;1.40;;
24305;SDS011;12423;48.768;8.850;2024-02-16T14:00:42;4.53;;;1.67;;
24305;SDS011;12423;48.768;8.850;2024-02-16T14:05:39;4.88;;;1.58;;
24305;SDS011;12423;48.768;8.850;2024-02-16T14:08:07;5.90;;;1.23;;
24305;SDS011;12423;48.768;8.850;2024-02-16T14:10:37;3.22;;;1.15;;
24305;SDS011;12423;48.768;8.850;2024-02-16T14:13:06;3.67;;;0.98;;
24305;SDS011;12423;48.768;8.850;2024-02-16T14:15:33;12.32;;;1.55;;
24305;SDS011;12423;48.768;8.850;2024-02-16T14:18:01;4.35;;;0.95;;
24305;SDS011;12423;48.768;8.850;2024-02-16T14:20:39;4.30;;;2.00;;
24305;SDS011;12423;48.768;8.850;2024-02-16T14:23:07;2.47;;;1.08;;
24305;SDS011;12423;48.768;8.850;2024-02-16T14:25:36;4.22;;;1.15;;
24305;SDS011;12423;48.768;8.850;2024-02-16T14:28:07;2.58;;;1.00;;
24305;SDS011;12423;48.768;8.850;2024-02-16T14:30:35;4.57;;;1.17;;
24305;SDS011;12423;48.768;8.850;2024-02-16T14:33:02;2.92;;;1.10;;
24305;SDS011;12423;48.768;8.850;2024-02-16T14:38:03;2.30;;;0.90;;
24305;SDS011;12423;48.768;8.850;2024-02-16T14:40:31;2.63;;;1.07;;
24305;SDS011;12423;48.768;8.850;2024-02-16T14:42:59;5.88;;;1.23;;
24305;SDS011;12423;48.768;8.850;2024-02-16T14:45:27;4.72;;;0.95;;
24305;SDS011;12423;48.768;8.850;2024-02-16T14:50:24;2.78;;;1.50;;
24305;SDS011;12423;48.768;8.850;2024-02-16T14:52:51;2.58;;;1.02;;
24305;SDS011;12423;48.768;8.850;2024-02-16T14:55:20;2.83;;;0.75;;
24305;SDS011;12423;48.768;8.850;2024-02-16T14:57:47;3.72;;;0.88;;
24305;SDS011;12423;48.768;8.850;2024-02-16T15:00:15;3.63;;;0.98;;
24305;SDS011;12423;48.768;8.850;2024-02-16T15:02:44;4.72;;;1.55;;
24305;SDS011;12423;48.768;8.850;2024-02-16T15:05:16;5.25;;;1.02;;
24305;SDS011;12423;48.768;8.850;2024-02-16T15:07:44;4.50;;;0.90;;
24305;SDS011;12423;48.768;8.850;2024-02-16T15:10:11;9.48;;;1.60;;
24305;SDS011;12423;48.768;8.850;2024-02-16T15:12:39;2.42;;;0.77;;
24305;SDS011;12423;48.768;8.850;2024-02-16T15:15:09;2.08;;;0.85;;
24305;SDS011;12423;48.768;8.850;2024-02-16T15:17:36;2.40;;;0.80;;
24305;SDS011;12423;48.768;8.850;2024-02-16T15:20:06;5.88;;;1.08;;
24305;SDS011;12423;48.768;8.850;2024-02-16T15:22:34;2.75;;;0.82;;
24305;SDS011;12423;48.768;8.850;2024-02-16T15:25:14;6.80;;;1.13;;
24305;SDS011;12423;48.768;8.850;2024-02-16T15:27:41;2.88;;;0.80;;